Time;durP1;ratioP1;P1;durP2;ratioP2;P2;SDS_P1;SDS_P2;PMS_P1;PMS_P2;Temp;Humidity;BMP_temperature;BMP_pressure;BME280_temperature;BME280_humidity;BME280_pressure;Samples;Min_cycle;Max_cycle;Signal;HPM_P1;HPM_P2
2021/04/05 00:01:29;;;;;;;12.48;4.68;;;7.20;81.80;;;;;;5015763;28;20030;-89
2021/04/05 00:03:55;;;;;;;9.05;4.68;;;7.00;81.90;;;;;;5016542;28;20061;-88
2021/04/05 00:06:22;;;;;;;10.43;4.28;;;7.00;83.00;;;;;;5016815;28;20361;-89
2021/04/05 00:08:49;;;;;;;9.75;4.13;;;6.80;82.50;;;;;;5034667;28;20025;-89
2021/04/05 00:11:16;;;;;;;10.57;4.05;;;6.60;84.60;;;;;;5016672;28;20036;-88
2021/04/05 00:13:43;;;;;;;7.32;3.67;;;6.60;84.40;;;;;;5015954;28;20151;-89
2021/04/05 00:16:11;;;;;;;10.38;4.00;;;7.30;83.50;;;;;;5016785;28;20485;-89
2021/04/05 00:18:36;;;;;;;9.27;4.10;;;7.20;81.30;;;;;;5016372;28;20018;-89
2021/04/05 00:21:08;;;;;;;12.95;4.38;;;7.20;82.30;;;;;;5016763;28;20026;-89
2021/04/05 00:23:34;;;;;;;10.18;3.92;;;7.10;81.80;;;;;;5016773;28;20025;-89
2021/04/05 00:26:01;;;;;;;10.13;3.65;;;7.10;83.10;;;;;;5034300;28;20465;-89
2021/04/05 00:28:27;;;;;;;10.35;4.40;;;7.40;82.80;;;;;;5016781;28;20018;-89
2021/04/05 00:30:53;;;;;;;8.70;4.10;;;7.20;82.80;;;;;;5016613;28;20026;-89
2021/04/05 00:33:20;;;;;;;10.98;4.55;;;7.20;82.50;;;;;;5034257;28;20041;-89
2021/04/05 00:35:46;;;;;;;9.48;4.30;;;7.40;81.50;;;;;;5017146;28;20080;-89
2021/04/05 00:38:13;;;;;;;10.30;4.60;;;7.10;82.00;;;;;;5016978;28;20159;-89
2021/04/05 00:40:43;;;;;;;10.25;4.22;;;7.10;81.90;;;;;;5034676;28;20021;-88
2021/04/05 00:43:13;;;;;;;14.48;4.25;;;6.80;82.60;;;;;;5033966;28;20029;-88
2021/04/05 00:45:39;;;;;;;9.32;4.18;;;6.90;83.70;;;;;;5016455;28;20061;-89
2021/04/05 00:48:06;;;;;;;8.50;4.15;;;6.80;83.10;;;;;;5034134;28;20051;-88
2021/04/05 00:50:44;;;;;;;10.85;4.40;;;6.70;82.80;;;;;;5016745;28;20032;-90
2021/04/05 00:53:11;;;;;;;11.20;4.32;;;6.30;84.00;;;;;;5034262;28;20029;-89
2021/04/05 00:55:42;;;;;;;12.48;4.53;;;6.10;85.00;;;;;;5016567;28;20018;-89
2021/04/05 00:58:08;;;;;;;7.97;4.10;;;6.00;85.50;;;;;;5034004;28;20080;-89
2021/04/05 01:00:39;;;;;;;9.07;3.47;;;5.90;86.90;;;;;;5016034;28;20022;-89
2021/04/05 01:03:06;;;;;;;8.55;4.18;;;6.30;86.30;;;;;;5016333;28;20022;-89
2021/04/05 01:05:32;;;;;;;8.80;3.90;;;6.70;85.30;;;;;;5016258;28;20033;-90
2021/04/05 01:07:58;;;;;;;10.30;3.63;;;6.70;84.10;;;;;;5016271;28;20056;-89
2021/04/05 01:10:25;;;;;;;8.50;3.50;;;6.40;85.10;;;;;;5033686;28;20022;-88
2021/04/05 01:12:52;;;;;;;9.52;4.45;;;6.50;92.20;;;;;;5016662;28;20026;-89
2021/04/05 01:15:18;;;;;;;12.85;4.10;;;6.50;91.60;;;;;;5019525;28;20022;-88
2021/04/05 01:17:45;;;;;;;11.38;4.85;;;6.30;86.00;;;;;;5020263;28;20556;-89
2021/04/05 01:20:15;;;;;;;12.85;4.30;;;5.70;86.00;;;;;;5020335;28;20086;-88
2021/04/05 01:22:42;;;;;;;10.32;3.72;;;5.80;86.40;;;;;;5019915;28;20030;-89
2021/04/05 01:25:14;;;;;;;7.10;3.60;;;6.20;86.90;;;;;;5019671;28;20508;-89
2021/04/05 01:27:41;;;;;;;11.23;4.30;;;6.50;84.90;;;;;;5037504;28;20037;-89
2021/04/05 01:30:32;;;;;;;9.93;4.32;;;6.10;85.30;;;;;;5020085;28;20108;-89
2021/04/05 01:33:03;;;;;;;10.18;4.10;;;5.90;85.80;;;;;;5030231;28;20148;-89
2021/04/05 01:35:33;;;;;;;10.38;3.53;;;5.60;87.40;;;;;;5056414;28;20021;-89
2021/04/05 01:37:59;;;;;;;11.80;4.00;;;5.90;87.10;;;;;;5057447;28;20499;-89
2021/04/05 01:40:24;;;;;;;8.05;3.95;;;6.00;86.90;;;;;;5056421;28;20028;-90
2021/04/05 01:42:51;;;;;;;10.77;3.80;;;6.10;86.00;;;;;;5056351;28;20025;-90
2021/04/05 01:45:18;;;;;;;7.30;4.00;;;6.10;86.40;;;;;;5056380;28;20021;-90
2021/04/05 01:47:44;;;;;;;8.00;3.33;;;6.50;86.20;;;;;;5055975;28;20029;-89
2021/04/05 01:50:12;;;;;;;9.13;3.90;;;6.50;83.70;;;;;;5055897;28;20116;-90
2021/04/05 01:52:41;;;;;;;5.75;3.38;;;5.90;85.70;;;;;;5056672;28;20399;-89
2021/04/05 01:55:09;;;;;;;6.40;3.20;;;5.70;87.00;;;;;;5056047;28;20029;-92
2021/04/05 01:57:35;;;;;;;9.95;3.75;;;5.60;88.00;;;;;;5055530;28;20021;-89
2021/04/05 02:00:05;;;;;;;8.65;3.67;;;5.50;87.40;;;;;;5055930;28;20032;-90
2021/04/05 02:02:33;;;;;;;7.55;3.22;;;5.40;88.00;;;;;;5055725;28;20066;-90
2021/04/05 02:04:58;;;;;;;12.05;4.85;;;5.40;89.20;;;;;;5055624;28;20492;-89
2021/04/05 02:07:24;;;;;;;13.15;3.97;;;5.70;87.10;;;;;;5055378;28;20032;-90
2021/04/05 02:09:50;;;;;;;10.18;3.63;;;5.70;87.40;;;;;;5055690;28;20029;-89
2021/04/05 02:12:16;;;;;;;7.20;3.28;;;5.50;88.10;;;;;;5056566;28;20025;-90
2021/04/05 02:14:42;;;;;;;10.38;3.88;;;5.50;88.70;;;;;;5055634;28;20025;-89
2021/04/05 02:17:07;;;;;;;11.25;4.25;;;5.60;87.90;;;;;;5055549;28;20025;-90
2021/04/05 02:19:33;;;;;;;7.20;3.13;;;5.70;87.60;;;;;;5055719;28;20047;-89
2021/04/05 02:22:00;;;;;;;6.68;3.30;;;6.00;87.60;;;;;;5056803;28;20126;-89
2021/04/05 02:24:26;;;;;;;10.20;3.72;;;6.10;85.80;;;;;;5054955;28;20473;-89
2021/04/05 02:26:52;;;;;;;7.85;3.63;;;6.00;86.70;;;;;;5054830;28;20025;-89
2021/04/05 02:29:19;;;;;;;9.40;3.70;;;5.90;85.60;;;;;;5054857;28;20052;-88
2021/04/05 02:31:45;;;;;;;6.53;3.10;;;5.70;86.60;;;;;;5056013;28;20017;-89
2021/04/05 02:34:14;;;;;;;8.20;3.83;;;5.70;88.10;;;;;;5054943;28;20558;-89
2021/04/05 02:36:41;;;;;;;8.05;3.55;;;5.80;86.40;;;;;;5055376;28;20029;-89
2021/04/05 02:39:10;;;;;;;8.95;3.92;;;5.50;87.30;;;;;;5054789;28;20021;-89
2021/04/05 02:41:42;;;;;;;10.90;3.45;;;5.50;87.60;;;;;;5055018;28;20029;-89
2021/04/05 02:44:09;;;;;;;7.18;2.88;;;5.80;88.00;;;;;;5055154;28;20029;-89
2021/04/05 02:46:37;;;;;;;11.55;4.20;;;6.40;87.00;;;;;;5055026;28;20029;-89
2021/04/05 02:49:11;;;;;;;9.18;3.63;;;5.80;86.90;;;;;;5054730;28;20067;-89
2021/04/05 02:51:49;;;;;;;6.93;3.50;;;6.10;87.50;;;;;;5054262;28;20035;-89
2021/04/05 02:54:19;;;;;;;10.75;3.75;;;5.80;85.90;;;;;;5054777;28;20111;-89
2021/04/05 02:56:45;;;;;;;9.35;3.60;;;5.60;87.10;;;;;;5055723;28;20029;-89
2021/04/05 02:59:15;;;;;;;11.98;3.97;;;5.50;88.20;;;;;;5054559;28;20021;-89
2021/04/05 03:01:41;;;;;;;7.22;3.60;;;5.40;88.10;;;;;;5054748;28;20032;-90
2021/04/05 03:04:08;;;;;;;9.38;4.07;;;5.30;88.60;;;;;;5054944;28;20025;-89
2021/04/05 03:06:34;;;;;;;9.45;3.33;;;5.30;89.00;;;;;;5054646;28;20024;-89
2021/04/05 03:09:05;;;;;;;9.05;4.03;;;5.30;89.80;;;;;;5054786;28;20086;-89
2021/04/05 03:11:33;;;;;;;10.30;3.60;;;5.50;88.90;;;;;;5054014;28;20025;-90
2021/04/05 03:14:00;;;;;;;10.40;3.72;;;5.80;89.40;;;;;;5055874;28;20436;-89
2021/04/05 03:16:27;;;;;;;7.75;3.70;;;5.60;87.60;;;;;;5054411;28;20025;-89
2021/04/05 03:18:56;;;;;;;10.05;3.85;;;5.30;88.60;;;;;;5055525;28;20025;-89
2021/04/05 03:21:23;;;;;;;10.05;3.78;;;5.30;89.70;;;;;;5053999;28;20369;-89
2021/04/05 03:23:50;;;;;;;8.27;3.92;;;5.30;89.50;;;;;;5054624;28;20036;-89
2021/04/05 03:26:16;;;;;;;8.02;3.83;;;4.90;90.20;;;;;;5055653;28;20052;-89
2021/04/05 03:28:42;;;;;;;8.50;3.30;;;5.10;90.20;;;;;;5055477;28;20495;-89
2021/04/05 03:31:10;;;;;;;6.30;2.83;;;5.30;90.10;;;;;;5054184;28;20025;-90
2021/04/05 03:33:45;;;;;;;10.50;3.60;;;5.60;90.00;;;;;;5053496;28;20053;-89
2021/04/05 03:36:27;;;;;;;9.68;3.40;;;5.80;88.90;;;;;;5054685;28;20021;-90
2021/04/05 03:38:53;;;;;;;8.35;4.07;;;5.60;87.80;;;;;;5055533;28;20490;-89
2021/04/05 03:41:47;;;;;;;8.45;4.20;;;5.50;88.40;;;;;;5054194;28;20500;-89
2021/04/05 03:44:17;;;;;;;10.27;3.92;;;5.40;88.70;;;;;;5054563;28;20028;-89
2021/04/05 03:46:45;;;;;;;7.75;3.65;;;5.10;90.00;;;;;;5053927;28;20029;-89
2021/04/05 03:49:33;;;;;;;6.82;3.55;;;5.10;90.20;;;;;;5054046;28;20029;-89
2021/04/05 03:52:13;;;;;;;8.15;4.25;;;5.10;90.30;;;;;;5055380;28;20433;-89
2021/04/05 03:54:49;;;;;;;9.50;3.30;;;5.10;90.00;;;;;;5053965;28;20477;-89
2021/04/05 03:57:19;;;;;;;9.95;3.72;;;5.70;90.30;;;;;;5053890;28;20605;-89
2021/04/05 03:59:50;;;;;;;8.82;3.78;;;6.30;88.60;;;;;;5055526;28;20045;-89
2021/04/05 04:02:20;;;;;;;9.02;4.10;;;6.90;86.30;;;;;;5054387;28;20028;-89
2021/04/05 04:05:00;;;;;;;6.88;3.50;;;6.70;84.20;;;;;;5054052;28;20036;-89
2021/04/05 04:09:57;;;;;;;12.15;4.22;;;6.60;87.20;;;;;;5055181;28;20388;-89
2021/04/05 04:12:24;;;;;;;13.35;5.25;;;6.70;84.70;;;;;;5053487;28;20033;-89
2021/04/05 04:14:53;;;;;;;8.10;3.78;;;6.10;86.30;;;;;;5053530;28;20025;-89
2021/04/05 04:17:20;;;;;;;8.07;3.40;;;6.50;87.70;;;;;;5054142;28;20079;-89
2021/04/05 04:19:47;;;;;;;10.05;4.13;;;7.00;86.00;;;;;;5053418;28;20021;-89
2021/04/05 04:22:14;;;;;;;11.93;4.07;;;6.60;84.40;;;;;;5053116;28;20083;-89
2021/04/05 04:24:40;;;;;;;12.23;4.65;;;6.20;87.30;;;;;;5053548;28;20029;-89
2021/04/05 04:27:07;;;;;;;8.38;3.75;;;6.60;86.70;;;;;;5053476;28;20033;-89
2021/04/05 04:29:33;;;;;;;13.38;5.00;;;6.30;86.70;;;;;;5053546;28;20028;-90
2021/04/05 04:31:59;;;;;;;8.32;3.60;;;6.20;87.40;;;;;;5053610;28;20029;-89
2021/04/05 04:34:26;;;;;;;7.70;3.88;;;6.20;88.90;;;;;;5053057;28;20127;-89
2021/04/05 04:36:52;;;;;;;6.72;3.40;;;6.60;87.20;;;;;;5053150;28;20048;-90
2021/04/05 04:39:19;;;;;;;9.48;4.25;;;6.70;85.80;;;;;;5053452;28;20029;-90
2021/04/05 04:41:47;;;;;;;9.35;3.58;;;6.40;85.40;;;;;;5054216;28;20545;-89
2021/04/05 04:44:13;;;;;;;10.05;3.83;;;6.30;87.50;;;;;;5053442;28;20057;-90
2021/04/05 04:46:40;;;;;;;9.77;4.45;;;6.50;87.40;;;;;;5053512;28;20032;-89
2021/04/05 04:49:07;;;;;;;9.18;4.20;;;6.70;86.50;;;;;;5056188;28;20412;-90
2021/04/05 04:51:34;;;;;;;7.13;3.92;;;6.70;86.00;;;;;;5057493;28;20075;-90
2021/04/05 04:54:02;;;;;;;16.63;10.23;;;6.10;86.60;;;;;;5057487;28;20021;-90
2021/04/05 04:56:30;;;;;;;14.77;5.35;;;5.70;88.00;;;;;;5058389;28;20021;-90
2021/04/05 04:59:00;;;;;;;11.80;4.10;;;5.40;90.30;;;;;;5057247;28;20028;-90
2021/04/05 05:01:28;;;;;;;9.68;4.30;;;5.70;90.30;;;;;;5057421;28;20040;-90
2021/04/05 05:04:01;;;;;;;10.15;4.72;;;5.90;89.10;;;;;;5058480;28;20021;-90
2021/04/05 05:06:29;;;;;;;15.70;4.60;;;5.80;89.10;;;;;;5056796;28;20021;-90
2021/04/05 05:08:56;;;;;;;7.90;4.65;;;5.70;90.00;;;;;;5056911;28;20124;-90
2021/04/05 05:11:23;;;;;;;13.98;5.35;;;5.90;89.00;;;;;;5057075;28;20021;-90
2021/04/05 05:13:50;;;;;;;12.43;4.53;;;5.70;89.30;;;;;;5056971;28;20025;-90
2021/04/05 05:16:16;;;;;;;9.27;4.78;;;5.50;90.40;;;;;;5056961;28;20032;-90
2021/04/05 05:18:42;;;;;;;10.57;4.18;;;5.30;90.40;;;;;;5056423;28;20021;-89
2021/04/05 05:21:15;;;;;;;9.98;3.95;;;5.50;90.90;;;;;;5055910;28;20018;-90
2021/04/05 05:23:41;;;;;;;10.90;4.32;;;5.90;90.40;;;;;;5055986;28;20543;-90
2021/04/05 05:26:10;;;;;;;9.63;4.07;;;6.30;89.50;;;;;;5056083;28;20024;-88
2021/04/05 05:28:37;;;;;;;9.20;4.10;;;6.50;88.20;;;;;;5056542;28;20056;-89
2021/04/05 05:31:04;;;;;;;12.50;4.32;;;6.20;88.80;;;;;;5056517;28;20039;-89
2021/04/05 05:33:30;;;;;;;10.27;4.00;;;6.10;90.10;;;;;;5056357;28;20135;-89
2021/04/05 05:35:57;;;;;;;14.13;4.10;;;6.20;89.80;;;;;;5056641;28;20063;-89
2021/04/05 05:38:24;;;;;;;10.35;4.07;;;6.10;90.00;;;;;;5056289;28;20017;-89
2021/04/05 05:40:51;;;;;;;6.80;3.85;;;6.60;89.40;;;;;;5057565;28;20032;-89
2021/04/05 05:43:32;;;;;;;14.40;4.35;;;7.10;87.20;;;;;;5057551;28;20068;-89
2021/04/05 05:46:08;;;;;;;8.90;4.00;;;6.90;86.60;;;;;;5056202;28;20029;-90
2021/04/05 05:48:50;;;;;;;8.93;4.38;;;6.90;87.30;;;;;;5056471;28;20102;-89
2021/04/05 05:51:47;;;;;;;12.75;4.35;;;6.90;87.20;;;;;;5056196;28;20036;-89
2021/04/05 05:54:13;;;;;;;10.18;4.22;;;6.80;87.90;;;;;;5014164;28;20029;-91
2021/04/05 05:56:43;;;;;;;7.72;4.28;;;6.90;87.70;;;;;;5057520;28;20380;-90
2021/04/05 05:59:28;;;;;;;12.32;5.05;;;7.00;87.60;;;;;;5056222;28;20074;-89
2021/04/05 06:02:21;;;;;;;11.23;4.78;;;7.20;86.90;;;;;;5057364;28;20024;-89
2021/04/05 06:05:03;;;;;;;8.50;3.85;;;6.90;87.60;;;;;;5056942;28;20499;-89
2021/04/05 06:07:50;;;;;;;13.23;3.40;;;7.10;87.90;;;;;;5056349;28;20029;-89
2021/04/05 06:10:50;;;;;;;9.52;4.45;;;7.20;87.00;;;;;;5058081;28;20033;-89
2021/04/05 06:13:34;;;;;;;8.52;4.03;;;7.30;87.10;;;;;;5038060;28;20064;-89
2021/04/05 06:16:32;;;;;;;9.55;4.30;;;7.40;85.90;;;;;;5057128;28;20430;-89
2021/04/05 06:18:58;;;;;;;10.57;4.07;;;7.70;84.70;;;;;;5055387;28;20033;-89
2021/04/05 06:21:41;;;;;;;12.25;4.15;;;7.90;84.10;;;;;;5055431;28;20029;-89
2021/04/05 06:24:49;;;;;;;8.73;3.88;;;7.90;83.70;;;;;;5055462;28;20025;-89
2021/04/05 06:27:35;;;;;;;10.23;4.70;;;7.90;83.40;;;;;;5022002;28;20040;-89
2021/04/05 06:30:05;;;;;;;7.60;3.53;;;7.70;83.80;;;;;;5054697;28;20163;-89
2021/04/05 06:32:57;;;;;;;9.90;4.10;;;7.60;84.20;;;;;;5053787;28;20032;-86
2021/04/05 06:35:29;;;;;;;10.40;4.55;;;7.80;84.00;;;;;;5017858;28;20029;-86
2021/04/05 06:38:15;;;;;;;14.60;5.25;;;7.40;84.70;;;;;;5017825;28;20017;-88
2021/04/05 06:40:44;;;;;;;8.50;3.90;;;7.20;84.70;;;;;;5018079;28;20021;-88
2021/04/05 06:43:38;;;;;;;9.40;4.53;;;7.30;86.30;;;;;;5017392;28;20025;-91
2021/04/05 06:46:42;;;;;;;50.80;21.15;;;7.30;86.00;;;;;;5017479;28;20091;-88
2021/04/05 06:49:31;;;;;;;15.57;4.72;;;7.20;86.30;;;;;;5017365;28;20087;-86
2021/04/05 06:52:34;;;;;;;9.60;4.03;;;7.50;86.10;;;;;;5032922;28;20048;-87
2021/04/05 06:55:16;;;;;;;10.73;4.15;;;7.60;85.70;;;;;;5017264;28;20473;-85
2021/04/05 06:58:11;;;;;;;12.63;5.03;;;7.50;85.50;;;;;;5035203;28;20351;-85
2021/04/05 07:01:01;;;;;;;12.15;4.45;;;7.50;85.70;;;;;;5017614;28;20025;-88
2021/04/05 07:03:57;;;;;;;11.30;4.85;;;7.70;85.40;;;;;;5035327;28;20021;-85
2021/04/05 07:06:35;;;;;;;12.05;5.45;;;7.60;85.20;;;;;;5018160;28;20087;-84
2021/04/05 07:09:33;;;;;;;9.70;4.38;;;7.40;85.70;;;;;;5017331;28;20017;-87
2021/04/05 07:12:11;;;;;;;12.02;4.82;;;7.70;85.70;;;;;;5034412;28;20049;-85
2021/04/05 07:15:00;;;;;;;13.05;4.85;;;7.90;84.90;;;;;;5016847;28;20033;-89
2021/04/05 07:17:38;;;;;;;14.63;4.97;;;7.80;85.10;;;;;;5017029;28;20025;-86
2021/04/05 07:20:42;;;;;;;10.80;4.68;;;8.00;85.10;;;;;;5016747;28;20396;-84
2021/04/05 07:23:29;;;;;;;8.50;3.75;;;7.90;85.70;;;;;;5013511;28;20029;-84
2021/04/05 07:26:33;;;;;;;17.58;4.30;;;8.30;85.70;;;;;;5034787;28;20097;-87
2021/04/05 07:29:39;;;;;;;12.18;4.97;;;8.40;84.80;;;;;;5034476;28;20051;-87
2021/04/05 07:32:22;;;;;;;15.77;4.78;;;8.50;84.40;;;;;;5016435;28;20076;-86
2021/04/05 07:34:59;;;;;;;13.55;4.28;;;8.70;84.80;;;;;;5052441;28;20098;-86
2021/04/05 07:37:46;;;;;;;13.93;4.28;;;8.90;84.10;;;;;;5054182;28;20025;-87
2021/04/05 07:40:21;;;;;;;14.90;5.32;;;9.10;84.00;;;;;;5052662;28;20028;-83
2021/04/05 07:42:52;;;;;;;15.77;5.50;;;9.30;84.50;;;;;;5054084;28;20035;-86
2021/04/05 07:45:36;;;;;;;18.85;5.85;;;9.70;84.50;;;;;;5052687;28;20051;-84
2021/04/05 07:48:20;;;;;;;11.07;5.07;;;10.00;83.40;;;;;;5054080;28;20027;-86
2021/04/05 07:51:16;;;;;;;17.58;5.20;;;10.20;83.30;;;;;;5053031;28;20056;-86
2021/04/05 07:53:46;;;;;;;14.32;5.40;;;10.30;82.10;;;;;;5052308;28;20025;-86
2021/04/05 07:56:35;;;;;;;17.23;5.75;;;10.50;82.10;;;;;;5052315;28;20121;-87
2021/04/05 07:59:01;;;;;;;13.88;5.28;;;10.40;81.80;;;;;;5053505;28;20028;-85
2021/04/05 08:02:05;;;;;;;17.27;5.68;;;10.50;81.80;;;;;;5052271;28;20021;-86
2021/04/05 08:04:58;;;;;;;14.18;4.75;;;10.60;81.00;;;;;;5052272;28;20056;-86
2021/04/05 08:08:21;;;;;;;15.05;5.65;;;10.90;80.20;;;;;;5052235;28;20063;-85
2021/04/05 08:11:09;;;;;;;14.00;4.78;;;10.90;80.60;;;;;;4956577;28;20536;-86
2021/04/05 08:14:12;;;;;;;14.73;4.65;;;11.10;79.10;;;;;;5047080;28;20127;-84
2021/04/05 08:17:20;;;;;;;14.68;4.10;;;11.10;78.40;;;;;;5053523;28;20025;-84
2021/04/05 08:20:01;;;;;;;14.02;4.78;;;10.80;78.40;;;;;;5052089;28;20028;-83
2021/04/05 08:22:39;;;;;;;13.48;4.78;;;10.80;79.00;;;;;;5052364;28;20021;-84
2021/04/05 08:25:05;;;;;;;16.90;3.97;;;10.90;78.80;;;;;;5057790;28;20071;-83
2021/04/05 08:27:48;;;;;;;14.40;4.35;;;10.90;77.30;;;;;;5056789;28;20373;-82
2021/04/05 08:30:21;;;;;;;16.20;4.50;;;10.90;77.70;;;;;;5056683;28;20021;-84
2021/04/05 08:33:24;;;;;;;14.45;4.10;;;10.80;76.80;;;;;;5052832;28;20080;-81
2021/04/05 08:35:55;;;;;;;16.63;3.95;;;10.70;76.50;;;;;;5019552;28;20036;-82
2021/04/05 08:38:33;;;;;;;14.88;4.05;;;10.50;76.90;;;;;;5020109;28;20354;-82
2021/04/05 08:41:15;;;;;;;13.93;3.78;;;10.60;77.80;;;;;;5020069;28;20121;-82
2021/04/05 08:43:44;;;;;;;11.75;4.20;;;10.70;77.80;;;;;;5019418;28;20033;-81
2021/04/05 08:46:20;;;;;;;16.38;4.45;;;10.50;77.20;;;;;;5019420;28;20034;-82
2021/04/05 08:48:51;;;;;;;12.52;3.55;;;10.50;77.90;;;;;;5019327;28;20113;-82
2021/04/05 08:51:41;;;;;;;15.85;3.55;;;10.30;76.90;;;;;;5019194;28;20025;-82
2021/04/05 08:54:08;;;;;;;14.40;4.50;;;10.30;77.90;;;;;;5037281;28;20071;-81
2021/04/05 08:56:54;;;;;;;15.93;4.32;;;10.40;78.10;;;;;;5019184;28;20093;-85
2021/04/05 08:59:37;;;;;;;17.50;4.78;;;10.30;78.00;;;;;;5019153;28;20423;-84
2021/04/05 09:02:26;;;;;;;10.10;3.67;;;10.30;78.20;;;;;;5036896;28;20021;-83
2021/04/05 09:04:54;;;;;;;12.95;4.20;;;10.30;77.40;;;;;;5036812;28;20038;-85
2021/04/05 09:07:35;;;;;;;16.25;3.58;;;10.20;77.30;;;;;;5019207;28;20116;-85
2021/04/05 09:10:21;;;;;;;17.90;3.70;;;10.30;76.80;;;;;;5035963;28;20022;-85
2021/04/05 09:12:49;;;;;;;15.70;4.78;;;10.30;77.60;;;;;;5002736;28;20041;-86
2021/04/05 09:15:38;;;;;;;11.32;3.58;;;10.30;77.50;;;;;;5019180;28;20164;-84
2021/04/05 09:18:28;;;;;;;15.07;3.55;;;10.10;74.40;;;;;;5031527;28;20030;-84
2021/04/05 09:21:06;;;;;;;8.82;3.50;;;10.10;75.40;;;;;;5018682;28;20029;-84
2021/04/05 09:23:37;;;;;;;11.57;4.18;;;10.10;75.50;;;;;;5036589;28;20032;-86
2021/04/05 09:26:27;;;;;;;10.77;3.92;;;10.10;76.10;;;;;;5019375;28;20030;-84
2021/04/05 09:29:08;;;;;;;40.08;11.98;;;10.20;75.90;;;;;;5018553;28;20022;-83
2021/04/05 09:32:28;;;;;;;15.05;4.03;;;10.20;73.80;;;;;;5018562;28;20022;-82
2021/04/05 09:35:12;;;;;;;10.95;3.78;;;10.20;73.90;;;;;;4997500;28;20042;-82
2021/04/05 09:37:53;;;;;;;8.10;3.35;;;10.20;74.20;;;;;;5034752;28;20038;-83
2021/04/05 09:40:36;;;;;;;12.38;3.80;;;10.10;74.10;;;;;;5018585;28;20057;-83
2021/04/05 09:53:45;;;;;;;16.85;3.70;;;10.00;70.10;;;;;;5035894;28;20075;-84
2021/04/05 09:56:15;;;;;;;16.05;4.53;;;10.00;70.40;;;;;;5018891;28;20029;-84
2021/04/05 09:58:51;;;;;;;11.07;3.40;;;10.00;71.00;;;;;;5017952;28;20440;-84
2021/04/05 10:04:41;;;;;;;8.93;2.92;;;10.00;72.80;;;;;;5036027;28;20512;-84
2021/04/05 10:07:07;;;;;;;9.45;3.28;;;10.00;70.30;;;;;;5017852;28;20025;-84
2021/04/05 10:09:34;;;;;;;9.75;3.70;;;9.90;69.90;;;;;;5018033;28;20017;-85
2021/04/05 10:12:05;;;;;;;9.25;2.90;;;10.00;70.10;;;;;;5017652;28;20029;-81
2021/04/05 10:14:33;;;;;;;8.68;2.63;;;10.10;69.70;;;;;;5017725;28;20031;-83
2021/04/05 10:17:00;;;;;;;12.20;3.35;;;10.00;68.10;;;;;;5018081;28;20025;-83
2021/04/05 10:19:40;;;;;;;13.70;3.60;;;10.10;69.20;;;;;;5035374;28;20014;-82
2021/04/05 10:22:18;;;;;;;10.30;3.25;;;10.20;68.10;;;;;;5034164;28;20117;-83
2021/04/05 10:24:46;;;;;;;11.18;3.83;;;10.30;66.50;;;;;;5017568;28;20116;-83
2021/04/05 10:27:15;;;;;;;12.63;3.92;;;10.40;66.00;;;;;;5017502;28;20029;-81
2021/04/05 10:29:43;;;;;;;31.13;12.80;;;10.50;64.50;;;;;;5035480;28;20025;-82
2021/04/05 10:32:12;;;;;;;11.73;3.47;;;10.60;64.10;;;;;;5017269;28;20481;-85
2021/04/05 10:34:44;;;;;;;11.20;3.22;;;10.50;63.70;;;;;;5034980;28;20111;-79
2021/04/05 10:37:16;;;;;;;12.23;3.28;;;10.60;63.70;;;;;;5017393;28;20029;-84
2021/04/05 10:39:50;;;;;;;8.73;3.67;;;10.70;63.50;;;;;;5017221;28;20030;-81
2021/04/05 10:42:25;;;;;;;10.05;3.67;;;10.90;62.60;;;;;;5017154;28;20112;-80
2021/04/05 10:45:05;;;;;;;7.22;2.85;;;11.00;61.00;;;;;;5034954;28;20079;-79
2021/04/05 10:47:53;;;;;;;10.75;4.07;;;11.00;60.00;;;;;;5016705;28;20120;-84
2021/04/05 10:50:28;;;;;;;7.85;3.13;;;11.10;60.50;;;;;;5034853;28;20477;-84
2021/04/05 10:53:02;;;;;;;12.60;4.30;;;11.30;61.20;;;;;;5017038;28;20026;-85
2021/04/05 10:55:29;;;;;;;12.75;4.00;;;11.50;61.10;;;;;;5034825;28;20021;-84
2021/04/05 10:58:00;;;;;;;13.57;3.70;;;12.00;60.10;;;;;;5016893;28;20029;-83
2021/04/05 11:00:50;;;;;;;13.82;3.45;;;12.30;58.90;;;;;;5016997;28;20447;-84
2021/04/05 11:03:26;;;;;;;14.10;2.97;;;12.70;59.00;;;;;;5034696;28;20025;-82
2021/04/05 11:05:58;;;;;;;10.02;3.50;;;13.00;59.40;;;;;;5016891;28;20396;-83
2021/04/05 11:08:28;;;;;;;10.07;3.47;;;12.80;59.90;;;;;;5016856;28;20423;-83
2021/04/05 11:11:16;;;;;;;13.18;3.47;;;12.40;61.40;;;;;;5016654;28;20030;-82
2021/04/05 11:13:46;;;;;;;8.07;3.80;;;12.30;62.30;;;;;;5034421;28;20109;-83
2021/04/05 11:16:15;;;;;;;13.07;3.72;;;12.20;62.00;;;;;;5034270;28;20026;-82
2021/04/05 11:19:08;;;;;;;10.60;3.47;;;12.20;63.00;;;;;;5016530;28;20072;-83
2021/04/05 11:21:41;;;;;;;8.98;3.35;;;12.10;62.80;;;;;;5014833;28;20449;-82
2021/04/05 11:24:09;;;;;;;10.30;3.63;;;12.10;63.80;;;;;;5016540;28;20079;-82
2021/04/05 11:26:37;;;;;;;7.22;3.40;;;12.10;63.60;;;;;;5016327;28;20029;-82
2021/04/05 11:29:10;;;;;;;8.80;4.18;;;12.00;63.20;;;;;;5016472;28;20025;-82
2021/04/05 11:31:41;;;;;;;9.57;3.10;;;12.10;63.40;;;;;;5016423;28;20112;-85
2021/04/05 11:34:08;;;;;;;12.93;4.30;;;12.20;63.40;;;;;;5041088;28;20412;-82
2021/04/05 11:36:47;;;;;;;10.95;4.38;;;12.20;63.80;;;;;;5052548;28;20055;-84
2021/04/05 11:39:16;;;;;;;11.95;4.45;;;12.30;63.70;;;;;;5053781;28;20028;-83
2021/04/05 11:41:46;;;;;;;14.27;4.50;;;12.30;63.30;;;;;;5052360;28;20380;-82
2021/04/05 11:44:17;;;;;;;14.60;5.30;;;12.30;63.30;;;;;;5052477;28;20032;-84
2021/04/05 11:46:46;;;;;;;10.05;4.22;;;12.40;64.30;;;;;;5052413;28;20028;-84
2021/04/05 11:49:14;;;;;;;15.98;5.35;;;12.40;64.40;;;;;;5052322;28;20028;-83
2021/04/05 11:51:49;;;;;;;15.30;4.82;;;12.40;65.50;;;;;;5052341;28;20025;-83
2021/04/05 11:54:36;;;;;;;14.88;4.80;;;12.40;65.00;;;;;;5052372;28;20043;-82
2021/04/05 11:57:06;;;;;;;17.35;5.45;;;12.40;65.90;;;;;;5052220;28;20063;-83
2021/04/05 11:59:35;;;;;;;19.05;5.45;;;12.20;65.80;;;;;;5052238;28;20020;-82
2021/04/05 12:02:15;;;;;;;14.70;4.78;;;11.90;66.60;;;;;;5052121;28;20021;-83
2021/04/05 12:04:52;;;;;;;18.55;5.97;;;11.90;67.10;;;;;;5052291;28;20029;-82
2021/04/05 12:07:23;;;;;;;19.30;7.10;;;12.00;67.80;;;;;;5052201;28;20025;-84
2021/04/05 12:10:16;;;;;;;21.75;6.82;;;11.90;67.90;;;;;;5052113;28;20503;-82
2021/04/05 12:12:52;;;;;;;14.13;5.25;;;11.90;68.00;;;;;;5052061;28;20503;-83
2021/04/05 12:15:20;;;;;;;16.25;6.25;;;11.70;68.50;;;;;;5052639;28;20017;-82
2021/04/05 12:17:51;;;;;;;15.20;5.47;;;11.60;68.70;;;;;;5051946;28;20049;-83
2021/04/05 12:20:24;;;;;;;20.33;5.53;;;11.50;69.60;;;;;;5053243;28;20029;-83
2021/04/05 12:22:54;;;;;;;13.25;5.90;;;11.40;69.90;;;;;;5052292;28;20477;-83
2021/04/05 12:25:33;;;;;;;14.63;5.43;;;11.10;70.50;;;;;;5053207;28;20047;-82
2021/04/05 12:28:02;;;;;;;15.00;6.45;;;11.00;71.50;;;;;;5051920;28;20029;-83
2021/04/05 12:30:29;;;;;;;20.83;6.93;;;11.00;71.90;;;;;;5053141;28;20025;-82
2021/04/05 12:32:57;;;;;;;13.32;6.38;;;10.90;72.10;;;;;;5052230;28;20048;-82
2021/04/05 12:35:24;;;;;;;18.40;7.40;;;10.80;72.90;;;;;;5053268;28;20025;-83
2021/04/05 12:38:05;;;;;;;25.02;7.68;;;10.70;73.20;;;;;;5051830;28;20025;-83
2021/04/05 12:40:40;;;;;;;20.15;7.70;;;10.70;73.60;;;;;;5051805;28;20049;-81
2021/04/05 12:43:17;;;;;;;22.00;8.20;;;10.80;74.10;;;;;;5051876;28;20025;-83
2021/04/05 12:45:51;;;;;;;20.88;8.23;;;10.90;74.70;;;;;;5052665;28;20120;-83
2021/04/05 12:48:22;;;;;;;24.23;8.75;;;11.10;75.60;;;;;;5052195;28;20025;-82
2021/04/05 12:50:55;;;;;;;21.45;8.50;;;11.00;76.00;;;;;;5052674;28;20357;-84
2021/04/05 12:53:25;;;;;;;25.23;10.18;;;10.80;77.10;;;;;;5052536;28;20112;-83
2021/04/05 12:55:53;;;;;;;24.60;9.70;;;10.80;78.70;;;;;;5052000;28;20017;-83
2021/04/05 12:58:28;;;;;;;25.25;9.38;;;10.70;78.40;;;;;;5051808;28;20082;-83
2021/04/05 13:00:54;;;;;;;29.48;9.35;;;10.50;78.90;;;;;;5051993;28;20032;-82
2021/04/05 13:03:30;;;;;;;26.00;9.13;;;10.60;79.60;;;;;;5051602;28;20075;-83
2021/04/05 13:06:09;;;;;;;23.38;9.65;;;10.50;80.00;;;;;;5051625;28;20025;-83
2021/04/05 13:08:57;;;;;;;27.75;9.30;;;10.70;79.90;;;;;;5051991;28;20122;-83
2021/04/05 13:11:26;;;;;;;24.60;8.80;;;10.70;80.40;;;;;;5056590;28;20128;-83
2021/04/05 13:14:15;;;;;;;22.40;8.88;;;10.80;79.90;;;;;;5056899;28;20024;-83
2021/04/05 13:16:51;;;;;;;24.35;9.30;;;10.80;79.20;;;;;;5055307;28;20021;-83
2021/04/05 13:19:18;;;;;;;23.45;8.50;;;10.60;79.30;;;;;;5055229;28;20025;-83
2021/04/05 13:21:48;;;;;;;21.33;9.18;;;10.50;80.20;;;;;;5055137;28;20025;-80
2021/04/05 13:24:31;;;;;;;17.95;8.05;;;10.70;80.50;;;;;;5055037;28;20361;-83
2021/04/05 13:27:00;;;;;;;26.95;9.25;;;10.80;80.00;;;;;;5055138;28;20384;-82
2021/04/05 13:29:32;;;;;;;19.88;8.18;;;10.90;79.60;;;;;;5055314;28;20032;-83
2021/04/05 13:32:01;;;;;;;18.90;8.23;;;10.80;78.00;;;;;;5054870;28;20021;-82
2021/04/05 13:34:33;;;;;;;25.10;8.48;;;10.70;78.40;;;;;;5039941;28;20476;-83
2021/04/05 13:37:03;;;;;;;24.95;8.57;;;10.50;78.40;;;;;;5018459;28;20032;-84
2021/04/05 13:39:32;;;;;;;26.17;8.35;;;10.40;79.30;;;;;;5018690;28;20065;-83